createdAt,value
2022-10-19T00:02:03.363Z,3.80
2022-10-19T00:06:26.502Z,4.17
2022-10-19T00:10:35.790Z,4.10
2022-10-19T00:14:44.447Z,3.90
2022-10-19T00:18:53.282Z,3.60
2022-10-19T00:23:01.911Z,3.50
2022-10-19T00:27:10.668Z,3.83
2022-10-19T00:31:20.192Z,4.10
2022-10-19T00:35:28.777Z,4.10
2022-10-19T00:39:37.355Z,4.20
2022-10-19T00:43:55.215Z,4.30
2022-10-19T00:48:03.929Z,3.97
2022-10-19T00:52:36.262Z,4.07
2022-10-19T00:56:47.905Z,3.27
2022-10-19T01:00:56.566Z,3.83
2022-10-19T01:05:06.084Z,4.40
2022-10-19T01:09:15.122Z,4.00
2022-10-19T01:13:41.979Z,3.57
2022-10-19T01:18:20.715Z,4.57
2022-10-19T01:22:59.549Z,4.83
2022-10-19T01:27:20.778Z,4.57
2022-10-19T01:31:38.414Z,5.17
2022-10-19T01:36:10.903Z,4.43
2022-10-19T01:40:43.082Z,4.47
2022-10-19T01:44:55.705Z,4.53
2022-10-19T01:49:09.914Z,4.33
2022-10-19T01:53:20.621Z,4.03
2022-10-19T01:57:38.077Z,4.13
2022-10-19T02:01:49.370Z,4.90
2022-10-19T02:05:58.859Z,4.10
2022-10-19T02:10:08.292Z,5.00
2022-10-19T02:14:19.742Z,4.50
2022-10-19T02:18:44.057Z,3.70
2022-10-19T02:22:52.685Z,4.80
2022-10-19T02:27:13.527Z,5.00
2022-10-19T02:31:23.161Z,4.50
2022-10-19T02:35:31.845Z,4.73
2022-10-19T02:39:41.050Z,4.10
2022-10-19T02:44:10.543Z,4.27
2022-10-19T02:48:23.802Z,4.87
2022-10-19T02:52:32.391Z,3.63
2022-10-19T02:56:41.036Z,4.87
2022-10-19T03:00:49.959Z,4.10
2022-10-19T03:04:58.710Z,4.00
2022-10-19T03:09:07.640Z,4.37
2022-10-19T03:13:16.987Z,4.53
2022-10-19T03:17:45.073Z,4.70
2022-10-19T03:21:54.108Z,4.70
2022-10-19T03:26:03.223Z,4.43
2022-10-19T03:30:12.113Z,4.40
2022-10-19T03:34:20.666Z,4.27
2022-10-19T03:38:29.243Z,4.27
2022-10-19T03:42:37.870Z,4.73
2022-10-19T03:46:46.392Z,3.83
2022-10-19T03:51:10.213Z,5.00
2022-10-19T03:55:19.727Z,4.10
2022-10-19T03:59:28.371Z,4.50
2022-10-19T04:04:00.640Z,4.60
2022-10-19T04:08:09.269Z,4.37
2022-10-19T04:12:37.151Z,4.33
2022-10-19T04:16:46.595Z,3.70
2022-10-19T04:20:59.162Z,3.93
2022-10-19T04:25:09.958Z,4.17
2022-10-19T04:29:20.802Z,4.07
2022-10-19T04:33:30.019Z,3.93
2022-10-19T04:37:38.704Z,3.90
2022-10-19T04:41:47.259Z,3.93
2022-10-19T04:45:55.904Z,3.93
2022-10-19T04:50:04.883Z,4.27
2022-10-19T04:54:13.571Z,3.80
2022-10-19T04:58:23.532Z,3.70
2022-10-19T05:02:32.059Z,4.07
2022-10-19T05:06:40.808Z,3.30
2022-10-19T05:10:49.361Z,3.20
2022-10-19T05:14:57.936Z,4.23
2022-10-19T05:19:06.573Z,3.07
2022-10-19T05:23:15.165Z,5.03
2022-10-19T05:27:23.727Z,3.83
2022-10-19T05:31:34.143Z,3.90
2022-10-19T05:35:42.681Z,3.53
2022-10-19T05:40:01.873Z,3.53
2022-10-19T05:44:16.618Z,4.22
2022-10-19T05:48:45.067Z,3.70
2022-10-19T05:52:53.596Z,3.53
2022-10-19T05:57:02.859Z,3.77
2022-10-19T06:01:12.094Z,3.13
2022-10-19T06:05:20.640Z,3.60
2022-10-19T06:09:29.272Z,3.27
2022-10-19T06:17:53.169Z,4.30
2022-10-19T06:22:01.737Z,4.17
2022-10-19T06:26:14.029Z,4.33
2022-10-19T06:30:22.718Z,3.60
2022-10-19T06:34:31.291Z,3.73
2022-10-19T06:38:40.487Z,4.00
2022-10-19T06:42:49.089Z,4.23
2022-10-19T06:46:57.668Z,4.57
2022-10-19T06:51:26.225Z,3.97
2022-10-19T06:55:34.772Z,4.10
2022-10-19T06:59:43.341Z,5.30
2022-10-19T07:03:53.724Z,5.03
2022-10-19T07:08:02.419Z,4.73
2022-10-19T07:12:10.976Z,6.03
2022-10-19T07:16:21.402Z,5.87
2022-10-19T07:20:30.276Z,5.70
2022-10-19T07:24:38.820Z,6.63
2022-10-19T07:28:49.110Z,5.53
2022-10-19T07:32:57.679Z,5.90
2022-10-19T07:37:06.261Z,6.60
2022-10-19T07:41:17.354Z,6.50
2022-10-19T07:45:25.915Z,7.20
2022-10-19T07:49:34.506Z,9.60
2022-10-19T07:53:43.520Z,7.53
2022-10-19T07:57:52.109Z,8.10
2022-10-19T08:02:02.395Z,8.10
2022-10-19T08:06:14.047Z,7.93
2022-10-19T08:10:22.730Z,9.97
2022-10-19T08:14:31.416Z,7.83
2022-10-19T08:19:00.718Z,8.90
2022-10-19T08:23:09.396Z,9.20
2022-10-19T08:27:18.017Z,7.80
2022-10-19T08:31:26.598Z,7.10
2022-10-19T08:35:36.408Z,8.17
2022-10-19T08:39:44.996Z,8.73
2022-10-19T08:44:10.077Z,8.53
2022-10-19T08:48:29.781Z,10.13
2022-10-19T08:52:39.699Z,7.80
2022-10-19T08:56:57.081Z,8.33
2022-10-19T09:01:19.224Z,8.27
2022-10-19T09:05:49.189Z,7.00
2022-10-19T09:10:05.074Z,6.50
2022-10-19T09:14:16.788Z,5.90
2022-10-19T09:18:30.996Z,6.13
2022-10-19T09:22:40.404Z,6.50
2022-10-19T09:26:52.096Z,6.10
2022-10-19T09:31:01.288Z,6.07
2022-10-19T09:35:21.675Z,5.37
2022-10-19T09:39:31.787Z,4.90
2022-10-19T09:43:43.883Z,4.97
2022-10-19T09:47:53.759Z,4.23
2022-10-19T09:52:02.365Z,3.83
2022-10-19T09:56:14.074Z,3.67
2022-10-19T10:00:26.585Z,4.00
2022-10-19T10:04:36.504Z,4.57
2022-10-19T10:08:54.303Z,4.50
2022-10-19T10:13:03.270Z,3.23
2022-10-19T10:17:24.039Z,3.70
2022-10-19T10:21:37.045Z,3.03
2022-10-19T10:25:48.667Z,3.30
2022-10-19T10:29:57.626Z,3.97
2022-10-19T10:34:16.547Z,3.67
2022-10-19T10:38:26.336Z,3.90
2022-10-19T10:42:46.496Z,5.03
2022-10-19T10:47:00.953Z,4.33
2022-10-19T10:51:23.131Z,4.17
2022-10-19T10:55:33.154Z,5.60
2022-10-19T11:00:01.611Z,4.70
2022-10-19T11:04:13.499Z,4.00
2022-10-19T11:08:49.338Z,3.93
2022-10-19T11:13:17.773Z,3.83
2022-10-19T11:17:31.850Z,3.03
2022-10-19T11:21:47.101Z,3.63
2022-10-19T11:25:59.840Z,2.70
2022-10-19T11:30:17.160Z,2.80
2022-10-19T11:35:01.270Z,3.23
2022-10-19T11:39:38.622Z,3.73
2022-10-19T11:44:13.362Z,5.40
2022-10-19T11:48:29.056Z,3.00
2022-10-19T11:52:55.911Z,4.10
2022-10-19T11:57:16.456Z,3.77
2022-10-19T12:01:37.050Z,3.23
2022-10-19T12:05:48.729Z,3.30
2022-10-19T12:10:33.815Z,3.80
2022-10-19T12:14:44.938Z,3.50
2022-10-19T12:18:56.549Z,3.17
2022-10-19T12:23:08.172Z,3.20
2022-10-19T12:27:19.180Z,2.90
2022-10-19T12:31:29.441Z,3.30
2022-10-19T12:35:48.011Z,2.60
2022-10-19T12:40:14.766Z,3.90
2022-10-19T12:44:47.668Z,3.07
2022-10-19T12:49:29.470Z,3.80
2022-10-19T12:53:48.809Z,2.93
2022-10-19T12:58:06.132Z,3.60
2022-10-19T13:02:23.130Z,3.13
2022-10-19T13:06:34.301Z,2.63
2022-10-19T13:10:44.386Z,3.13
2022-10-19T13:14:56.978Z,3.23
2022-10-19T13:19:17.590Z,2.90
2022-10-19T13:23:46.578Z,3.37
2022-10-19T13:27:57.653Z,4.10
2022-10-19T13:32:35.361Z,3.40
2022-10-19T13:37:01.763Z,3.53
2022-10-19T13:41:18.986Z,4.15
2022-10-19T13:45:28.413Z,3.17
2022-10-19T13:49:52.302Z,3.37
2022-10-19T13:54:23.867Z,3.43
2022-10-19T13:58:50.620Z,3.20
2022-10-19T14:03:23.801Z,3.60
2022-10-19T14:07:53.397Z,3.10
2022-10-19T14:12:23.885Z,2.73
2022-10-19T14:16:32.412Z,2.83
2022-10-19T14:20:41.024Z,3.97
2022-10-19T14:24:50.997Z,2.63
2022-10-19T14:29:01.189Z,2.93
2022-10-19T14:33:14.078Z,3.40
2022-10-19T14:37:43.742Z,4.50
2022-10-19T14:41:58.523Z,4.23
2022-10-19T14:46:14.080Z,3.70
2022-10-19T14:50:25.728Z,3.70
2022-10-19T14:54:40.491Z,5.33
2022-10-19T14:58:52.460Z,3.10
2022-10-19T15:03:24.524Z,4.13
2022-10-19T15:07:41.707Z,3.00
2022-10-19T15:11:51.996Z,3.63
2022-10-19T15:16:00.706Z,3.23
2022-10-19T15:20:12.382Z,3.00
2022-10-19T15:24:28.547Z,3.30
2022-10-19T15:28:58.920Z,2.90
2022-10-19T15:33:10.724Z,3.77
2022-10-19T15:37:24.047Z,3.43
2022-10-19T15:41:39.437Z,3.47
2022-10-19T15:45:48.067Z,3.47
2022-10-19T15:50:01.850Z,3.20
2022-10-19T15:54:10.562Z,3.50
2022-10-19T15:58:20.981Z,3.37
2022-10-19T16:02:29.954Z,3.30
2022-10-19T16:06:40.941Z,3.43
2022-10-19T16:11:13.426Z,4.07
2022-10-19T16:15:24.173Z,4.70
2022-10-19T16:19:32.886Z,3.60
2022-10-19T16:23:42.242Z,3.50
2022-10-19T16:27:50.918Z,3.60
2022-10-19T16:31:59.746Z,3.60
2022-10-19T16:36:09.733Z,4.10
2022-10-19T16:40:21.653Z,3.10
2022-10-19T16:44:30.174Z,3.40
2022-10-19T16:48:38.868Z,3.08
2022-10-19T16:52:47.598Z,3.43
2022-10-19T16:56:56.329Z,3.40
2022-10-19T17:01:12.404Z,5.83
2022-10-19T17:05:21.063Z,4.17
2022-10-19T17:09:41.205Z,3.03
2022-10-19T17:13:41.164Z,3.10
2022-10-19T17:17:49.817Z,2.90
2022-10-19T17:21:59.367Z,3.20
2022-10-19T17:26:09.246Z,3.47
2022-10-19T17:30:19.213Z,3.73
2022-10-19T17:34:28.538Z,4.70
2022-10-19T17:38:38.243Z,4.00
2022-10-19T17:42:47.631Z,4.83
2022-10-19T17:46:56.158Z,4.23
2022-10-19T17:51:10.674Z,3.43
2022-10-19T17:55:19.764Z,3.80
2022-10-19T17:59:34.778Z,4.30
2022-10-19T18:03:39.990Z,3.40
2022-10-19T18:07:49.446Z,3.80
2022-10-19T18:11:58.116Z,3.00
2022-10-19T18:16:09.443Z,3.40
2022-10-19T18:20:18.138Z,3.30
2022-10-19T18:24:46.119Z,3.53
2022-10-19T18:28:56.167Z,3.47
2022-10-19T18:33:06.182Z,3.20
2022-10-19T18:37:14.871Z,3.67
2022-10-19T18:41:42.958Z,4.00
2022-10-19T18:45:56.196Z,3.37
2022-10-19T18:50:05.327Z,3.30
2022-10-19T18:54:13.964Z,4.67
2022-10-19T18:58:22.592Z,3.50
2022-10-19T19:02:42.240Z,3.80
2022-10-19T19:06:42.112Z,3.70
2022-10-19T19:10:53.401Z,4.13
2022-10-19T19:15:02.227Z,4.07
2022-10-19T19:19:13.590Z,4.10
2022-10-19T19:23:22.145Z,4.00
2022-10-19T19:27:31.896Z,3.77
2022-10-19T19:31:40.744Z,3.90
2022-10-19T19:35:51.924Z,4.20
2022-10-19T19:40:01.722Z,3.93
2022-10-19T19:44:11.288Z,4.40
2022-10-19T19:48:20.413Z,3.70
2022-10-19T19:52:29.103Z,5.00
2022-10-19T19:56:39.119Z,4.67
2022-10-19T20:00:47.994Z,4.70
2022-10-19T20:04:56.627Z,3.63
2022-10-19T20:09:24.548Z,3.97
2022-10-19T20:13:34.072Z,3.83
2022-10-19T20:18:01.959Z,3.80
2022-10-19T20:22:10.577Z,3.70
2022-10-19T20:26:21.268Z,5.23
2022-10-19T20:30:29.889Z,3.93
2022-10-19T20:34:38.439Z,4.37
2022-10-19T20:38:55.345Z,4.10
2022-10-19T20:43:04.964Z,4.27
2022-10-19T20:47:13.534Z,3.80
2022-10-19T20:51:30.928Z,3.97
2022-10-19T20:55:38.029Z,4.60
2022-10-19T20:59:46.611Z,4.83
2022-10-19T21:03:57.436Z,4.50
2022-10-19T21:12:35.479Z,6.10
2022-10-19T21:16:44.296Z,5.20
2022-10-19T21:20:52.891Z,5.53
2022-10-19T21:25:01.634Z,5.07
2022-10-19T21:29:11.879Z,4.43
2022-10-19T21:33:20.467Z,5.13
2022-10-19T21:37:30.650Z,4.60
2022-10-19T21:41:39.287Z,4.97
2022-10-19T21:45:47.839Z,5.10
2022-10-19T21:49:56.444Z,5.23
2022-10-19T21:54:07.177Z,4.90
2022-10-19T21:58:16.038Z,5.13
2022-10-19T22:02:24.789Z,4.20
2022-10-19T22:06:36.299Z,5.03
2022-10-19T22:10:44.883Z,5.70
2022-10-19T22:14:53.513Z,5.23
2022-10-19T22:19:02.141Z,4.93
2022-10-19T22:23:10.627Z,4.10
2022-10-19T22:27:19.193Z,5.40
2022-10-19T22:31:30.319Z,4.73
2022-10-19T22:35:38.859Z,5.63
2022-10-19T22:39:47.416Z,4.73
2022-10-19T22:43:55.958Z,4.77
2022-10-19T22:48:06.065Z,4.73
2022-10-19T22:52:16.663Z,4.30
2022-10-19T22:56:25.330Z,4.97
2022-10-19T23:00:34.367Z,4.40
2022-10-19T23:04:43.000Z,5.60
2022-10-19T23:08:51.998Z,5.50
2022-10-19T23:13:00.567Z,5.20
2022-10-19T23:17:09.614Z,5.23
2022-10-19T23:21:18.437Z,5.10
2022-10-19T23:25:27.073Z,4.83
2022-10-19T23:29:35.813Z,5.00
2022-10-19T23:33:44.414Z,5.23
2022-10-19T23:37:52.958Z,5.07
2022-10-19T23:42:20.847Z,5.10
2022-10-19T23:46:29.409Z,6.13
2022-10-19T23:50:37.977Z,6.20
2022-10-19T23:54:46.536Z,5.90
2022-10-19T23:58:55.729Z,5.50
